Terminal Aerodrome Forecast
Issued by NWS Blacksburg, VA

Current Version | Previous Version | Text Only | Print | Product List | Glossary Off
Versions: 1 2 3 4 5 6 7 8 9 10 11 12 13 14 15 16 17 18 19 20 21 22 23 24 25 26 27 28 29 30 31

000
FTUS41 KRNK 261731
TAFBLF
TAF
KBLF 261731Z 2618/2718 32004KT P6SM BKN070
      TEMPO 2622/2702 4SM -SHRA OVC007
     FM270200 VRB02KT 5SM -SHRA BR OVC008
     FM271300 31005KT P6SM OVC015
     FM271600 30010KT P6SM BKN040=

USA.gov is the U.S. government's official web portal to all federal, state and local government web resources and services.